Reno, Nevada
Current Conditions -  °F | °C
As of 7:55 AM on Sunday 23 Nov 2014 (Local Time) from KRNO Reporting Station
Broken Clouds Broken Clouds  
Wind Chill: 30°   Ceiling: 20000
Heat Index: 30°   Visibility: 10mi
Dew Point: 24°   Wind: 0mph
Humidity: 79%   Direction: NA
Pressure: 30.38"   Gusts: NA
Location:  39.52°N, 119.81°W
Report Text: KRNO 231555Z 00000KT 10SM FEW015 SCT140 BKN200 M01/M04 A3038 RMK AO2 SLP290 FU FEW015 FU NW T10111044
Loading
Personal Weather Stations






























Interactive Weather Map New forecast layout! Learn more

10-Day Weather Forecast

Advertisements
Track Severe Weather on mobile